Bullhead City, AZ

12:33 AM MST on August 30, 2015 (GMT -0700)
Laughlin-Bullhead International | | Change Station
CLOSE
Current Station
Airport
Location: Bullhead City,
Elevation: 696 ft
Nearby Weather Stations

Elev 696 ft 35.16 °N, 114.56 °W | Updated 18 minutes ago

Clear
Clear
100 °F
Feels Like 100 °F
N
9
Wind Variable Wind from South

Today
High -- | Low -- °F
--% Chance of Precip.
Yesterday
High -- | Low -- °F
Precip. -- in
6:09 AM 7:07 PM
Full, 100% visible
Pressure 29.73 in
Visibility 10.0 miles
Clouds Clear
Dew Point 46 °F
Humidity 16%
Rainfall 0.00 in
Snow Depth Not available.
UV 0 out of 12
Pollen 6.60 out of 12
Air Quality Not available.
Flu Activity Not available.
METAR KIFP 300715Z AUTO 17008KT 10SM CLR 38/08 A2973 RMK AO2
Pressure 29.73 in
Visibility 10.0 miles
Clouds Clear
Dew Point 46 °F
Humidity 16%
Rainfall 0.00 in
Snow Depth Not available.
UV 0 out of 12
Pollen 6.60 out of 12
Air Quality Not available.
Flu Activity Not available.
METAR KIFP 300715Z AUTO 17008KT 10SM CLR 38/08 A2973 RMK AO2

10-Day Weather Forecast

×

Almanac

Astronomy

Aug. 30, 2015 Rise Set
Actual Time
Civil Twilight
Nautical Twilight
Astronomical Twilight
Moon
Length of Visible Light
Length of Day
Tomorrow will be .
, % of the Moon is Illuminated

Today's Extremes

State Highs State Lows

Community

WunderPhotos

Upload Photos

1,850,904 photos uploaded!

WunderBlogs® & News

Nearby

Air Quality

  Air Quality AQ Index Pollutant
Not available.

Snow Depth

Station Depth Elevation

Earthquake Activity

City Distance Mag. Time & Date
Minimum magnitude displayed is 2.5.

Coastal Water Temperatures

Place Temperature

Stations

Nearby Weather Stations

Station Location Temp. Windchill Dew Point Humidity Wind Precip. Elev Updated Type